Airfield :
LOGIN :

Register | Disclaimer

   EN    FR    IT 

 










Legend :    VFR   Marginal VFR   IFR   Intensive IFR   Very Intensive IFR
Visi :
Ceiling :
>= 8 km
>= 3000ft
5 to 8 km
1000 to 3000 ft
1500m to 5 km
500 to 1000 ft
800 to 1500m
200 to 500 ft
< 800m
< 200 ft
Symbols :   Thunderstorms  Fog  Heavy snow  Heavy precipitations  Wind > 20 kt
SIGMETs :     Misc.  Thunderstorms  Icing  Turbulence  Mountain Waves  Volcanic Ashes







- Airport Elevation : 529 ft
- IATA code : CHR
- Download approach charts


LFLX - Chateauroux

CURRENT METAR :
  • 201930Z AUTO 26010KT CAVOK 25/16 Q1017 NOSIG

EXPIRED METARs :
  • 201900Z AUTO 25012KT CAVOK 26/16 Q1016 NOSIG
  • 201830Z AUTO 26013KT 9999 FEW048 SCT058 BKN240 26/15 Q1016 NOSIG
  • 201800Z AUTO 25014KT CAVOK 26/15 Q1016 NOSIG
  • 201730Z AUTO 27014KT 9999 SCT049 BKN086 27/15 Q1016 NOSIG
  • 201700Z AUTO 26015KT 9999 FEW048 SCT240 28/15 Q1016 TEMPO 24012G22KT

TAF TAF LFLX
Valid from the 20 at 18:00 until the 22 at 00:00 UTC


201700Z 2018/2124 26010KT CAVOK
TEMPO 2112/2114 30005KT
BECMG 2121/2124 03005KT
No reported NOTAMs for that airfield.



MET'MAP, your aeronautical weather chart ! - Copyright ORBIFLY December 2007 - Disclaimer

ORBIFLY MET'MAP TEAM :

Programming & Development : Alexandra Zaïnal
Concept & Development : Baudouin d'Aumeries
Co-Development & Prog : Marc-Olivier Méhu
Technical & hardware support : Manuel Goepfert

Contact : metmap@orbifly.com




SOURCES & CREDITS :

   NOAA